createdAt,value
2019-04-30T00:01:37.041Z,8.24
2019-04-30T00:04:18.796Z,8.24
2019-04-30T00:06:47.606Z,8.15
2019-04-30T00:09:19.282Z,8.13
2019-04-30T00:11:50.532Z,8.05
2019-04-30T00:14:18.684Z,8.14
2019-04-30T00:16:47.613Z,8.14
2019-04-30T00:19:19.676Z,8.05
2019-04-30T00:21:48.318Z,8.06
2019-04-30T00:24:17.457Z,8.01
2019-04-30T00:26:51.918Z,7.97
2019-04-30T00:29:26.530Z,8.01
2019-04-30T00:31:47.424Z,7.97
2019-04-30T00:34:16.175Z,7.95
2019-04-30T00:36:45.996Z,7.88
2019-04-30T00:39:16.742Z,7.84
2019-04-30T00:41:47.352Z,7.88
2019-04-30T00:44:20.053Z,7.81
2019-04-30T00:46:47.993Z,7.84
2019-04-30T00:49:22.956Z,7.87
2019-04-30T00:51:49.766Z,7.71
2019-04-30T00:54:22.126Z,7.80
2019-04-30T00:56:48.539Z,7.67
2019-04-30T00:59:17.307Z,7.67
2019-04-30T01:02:11.351Z,7.61
2019-04-30T01:04:45.025Z,7.66
2019-04-30T01:07:15.563Z,7.60
2019-04-30T01:09:49.421Z,7.48
2019-04-30T01:12:17.492Z,7.45
2019-04-30T01:14:45.647Z,7.45
2019-04-30T01:17:14.399Z,7.48
2019-04-30T01:19:45.875Z,7.40
2019-04-30T01:22:13.994Z,7.47
2019-04-30T01:24:43.136Z,7.41
2019-04-30T01:27:12.151Z,7.50
2019-04-30T01:29:44.036Z,7.36
2019-04-30T01:32:17.426Z,7.40
2019-04-30T01:34:44.264Z,7.48
2019-04-30T01:37:12.785Z,7.35
2019-04-30T01:39:41.654Z,7.36
2019-04-30T01:42:11.464Z,7.35
2019-04-30T01:44:43.492Z,7.20
2019-04-30T01:47:10.928Z,7.16
2019-04-30T01:49:42.710Z,7.15
2019-04-30T01:52:10.193Z,7.20
2019-04-30T01:54:39.231Z,7.05
2019-04-30T01:57:31.909Z,6.98
2019-04-30T02:00:34.749Z,6.87
2019-04-30T02:03:03.584Z,6.85
2019-04-30T02:05:32.325Z,6.78
2019-04-30T02:08:01.309Z,6.82
2019-04-30T02:10:30.055Z,6.63
2019-04-30T02:12:59.140Z,6.72
2019-04-30T02:15:29.199Z,6.60
2019-04-30T02:17:58.781Z,6.50
2019-04-30T02:20:28.675Z,6.66
2019-04-30T02:22:58.703Z,6.64
2019-04-30T02:25:29.590Z,6.55
2019-04-30T02:27:59.015Z,6.54
2019-04-30T02:30:30.919Z,6.51
2019-04-30T02:33:00.566Z,6.53
2019-04-30T02:35:40.694Z,6.57
2019-04-30T02:38:20.286Z,6.50
2019-04-30T02:40:50.531Z,6.44
2019-04-30T02:43:20.650Z,6.32
2019-04-30T02:45:51.662Z,6.37
2019-04-30T02:48:23.264Z,6.41
2019-04-30T02:50:53.310Z,6.24
2019-04-30T02:54:00.620Z,6.32
2019-04-30T02:56:30.064Z,6.27
2019-04-30T02:59:00.380Z,6.15
2019-04-30T03:01:30.573Z,6.03
2019-04-30T03:03:59.891Z,5.99
2019-04-30T03:06:30.388Z,5.97
2019-04-30T03:09:01.119Z,6.02
2019-04-30T03:11:30.315Z,5.85
2019-04-30T03:13:59.518Z,6.10
2019-04-30T03:16:35.793Z,6.10
2019-04-30T03:19:12.360Z,6.24
2019-04-30T03:21:54.165Z,6.25
2019-04-30T03:24:22.925Z,6.20
2019-04-30T03:26:51.781Z,6.22
2019-04-30T03:29:23.884Z,6.19
2019-04-30T03:31:52.547Z,6.20
2019-04-30T03:34:25.824Z,6.05
2019-04-30T03:36:51.969Z,5.94
2019-04-30T03:39:20.718Z,6.00
2019-04-30T03:41:50.219Z,5.94
2019-04-30T03:44:25.554Z,5.94
2019-04-30T03:46:49.975Z,5.82
2019-04-30T03:49:20.228Z,5.86
2019-04-30T03:51:49.863Z,5.90
2019-04-30T03:54:19.502Z,5.80
2019-04-30T03:56:50.154Z,5.79
2019-04-30T03:59:19.910Z,5.87
2019-04-30T04:02:14.253Z,5.90
2019-04-30T04:04:52.660Z,5.94
2019-04-30T04:07:30.017Z,5.90
2019-04-30T04:10:10.090Z,5.85
2019-04-30T04:12:39.555Z,5.87
2019-04-30T04:15:10.405Z,5.86
2019-04-30T04:17:39.993Z,5.84
2019-04-30T04:20:10.543Z,5.85
2019-04-30T04:22:40.336Z,5.91
2019-04-30T04:25:10.105Z,5.82
2019-04-30T04:27:39.876Z,5.76
2019-04-30T04:30:10.638Z,5.78
2019-04-30T04:32:40.566Z,5.69
2019-04-30T04:35:12.665Z,5.66
2019-04-30T04:37:40.316Z,5.69
2019-04-30T04:40:09.586Z,5.64
2019-04-30T04:42:39.532Z,5.79
2019-04-30T04:45:09.844Z,5.74
2019-04-30T04:47:40.191Z,5.77
2019-04-30T04:50:10.624Z,5.77
2019-04-30T04:52:39.711Z,5.85
2019-04-30T04:55:10.035Z,5.91
2019-04-30T04:57:39.981Z,5.85
2019-04-30T05:00:10.619Z,5.90
2019-04-30T05:03:09.461Z,6.00
2019-04-30T05:05:39.848Z,5.96
2019-04-30T05:08:08.830Z,6.04
2019-04-30T05:10:39.213Z,5.91
2019-04-30T05:13:09.217Z,5.91
2019-04-30T05:15:39.017Z,5.90
2019-04-30T05:18:09.188Z,5.92
2019-04-30T05:20:39.887Z,5.97
2019-04-30T05:23:09.477Z,6.07
2019-04-30T05:25:39.031Z,6.14
2019-04-30T05:28:08.713Z,6.16
2019-04-30T05:30:39.335Z,6.16
2019-04-30T05:33:08.844Z,6.17
2019-04-30T05:35:38.871Z,6.18
2019-04-30T05:38:09.348Z,6.27
2019-04-30T05:40:39.550Z,6.28
2019-04-30T05:43:11.094Z,6.28
2019-04-30T05:45:58.756Z,6.26
2019-04-30T05:48:28.649Z,6.30
2019-04-30T05:50:59.146Z,6.38
2019-04-30T05:53:28.708Z,6.46
2019-04-30T05:55:59.265Z,6.42
2019-04-30T05:58:29.999Z,6.44
2019-04-30T06:00:59.709Z,6.47
2019-04-30T06:03:32.951Z,6.65
2019-04-30T06:05:59.459Z,6.55
2019-04-30T06:08:33.565Z,6.56
2019-04-30T06:11:09.395Z,6.58
2019-04-30T06:13:55.947Z,6.65
2019-04-30T06:16:26.435Z,6.70
2019-04-30T06:18:55.461Z,6.79
2019-04-30T06:21:24.403Z,6.79
2019-04-30T06:23:53.314Z,6.82
2019-04-30T06:26:22.566Z,6.85
2019-04-30T06:28:51.657Z,6.84
2019-04-30T06:31:31.905Z,6.92
2019-04-30T06:33:51.320Z,6.89
2019-04-30T06:36:20.600Z,6.96
2019-04-30T06:38:49.445Z,6.88
2019-04-30T06:41:19.782Z,6.91
2019-04-30T06:43:49.754Z,6.94
2019-04-30T06:46:18.887Z,6.96
2019-04-30T06:48:50.806Z,6.91
2019-04-30T06:51:18.937Z,6.88
2019-04-30T06:53:49.544Z,7.00
2019-04-30T06:56:18.971Z,7.03
2019-04-30T06:58:49.371Z,7.13
2019-04-30T07:01:19.107Z,7.01
2019-04-30T07:03:48.743Z,7.21
2019-04-30T07:06:27.521Z,7.33
2019-04-30T07:09:03.778Z,7.34
2019-04-30T07:11:39.219Z,7.31
2019-04-30T07:14:09.651Z,7.38
2019-04-30T07:16:39.742Z,7.53
2019-04-30T07:19:09.305Z,7.44
2019-04-30T07:21:42.748Z,7.42
2019-04-30T07:24:09.405Z,7.61
2019-04-30T07:26:38.886Z,7.70
2019-04-30T07:29:09.615Z,7.68
2019-04-30T07:31:39.291Z,7.84
2019-04-30T07:34:09.243Z,7.97
2019-04-30T07:36:46.961Z,7.97
2019-04-30T07:39:10.085Z,7.96
2019-04-30T07:41:40.312Z,8.03
2019-04-30T07:44:10.994Z,8.08
2019-04-30T07:46:41.217Z,8.15
2019-04-30T07:49:10.220Z,8.29
2019-04-30T07:51:41.684Z,8.42
2019-04-30T07:54:09.376Z,8.50
2019-04-30T07:56:41.499Z,8.50
2019-04-30T07:59:11.063Z,8.52
2019-04-30T08:01:59.616Z,8.57
2019-04-30T08:04:29.407Z,8.73
2019-04-30T08:06:59.834Z,8.78
2019-04-30T08:09:38.740Z,8.78
2019-04-30T08:11:59.613Z,8.97
2019-04-30T08:14:28.843Z,8.97
2019-04-30T08:16:58.942Z,9.17
2019-04-30T08:19:28.685Z,9.33
2019-04-30T08:21:58.597Z,9.37
2019-04-30T08:24:29.173Z,9.19
2019-04-30T08:26:59.103Z,9.35
2019-04-30T08:29:29.503Z,9.47
2019-04-30T08:31:59.375Z,9.49
2019-04-30T08:34:29.232Z,9.60
2019-04-30T08:36:59.466Z,9.68
2019-04-30T08:39:29.433Z,9.59
2019-04-30T08:42:00.016Z,9.79
2019-04-30T08:44:29.489Z,9.79
2019-04-30T08:46:59.033Z,9.81
2019-04-30T08:49:30.351Z,9.92
2019-04-30T08:51:58.747Z,10.06
2019-04-30T08:54:29.397Z,10.06
2019-04-30T08:56:59.517Z,10.16
2019-04-30T08:59:29.457Z,10.27
2019-04-30T09:01:58.871Z,10.43
2019-04-30T09:04:29.997Z,10.13
2019-04-30T09:07:00.059Z,10.38
2019-04-30T09:09:30.708Z,10.45
2019-04-30T09:11:59.492Z,10.57
2019-04-30T09:14:29.743Z,10.66
2019-04-30T09:16:59.552Z,10.66
2019-04-30T09:19:29.818Z,10.79
2019-04-30T09:21:59.077Z,10.71
2019-04-30T09:24:30.664Z,10.60
2019-04-30T09:26:59.064Z,10.79
2019-04-30T09:29:29.268Z,11.07
2019-04-30T09:31:59.397Z,11.01
2019-04-30T09:34:29.190Z,11.03
2019-04-30T09:36:58.934Z,11.10
2019-04-30T09:39:29.557Z,11.33
2019-04-30T09:41:59.577Z,11.36
2019-04-30T09:44:30.538Z,11.11
2019-04-30T09:46:58.975Z,11.37
2019-04-30T09:49:29.394Z,11.29
2019-04-30T09:51:59.520Z,11.48
2019-04-30T09:54:29.487Z,11.56
2019-04-30T09:56:59.041Z,11.54
2019-04-30T09:59:29.163Z,11.85
2019-04-30T10:01:58.001Z,11.80
2019-04-30T10:04:27.832Z,11.71
2019-04-30T10:06:59.419Z,11.69
2019-04-30T10:09:29.326Z,11.84
2019-04-30T10:12:13.576Z,12.01
2019-04-30T10:14:42.421Z,11.89
2019-04-30T10:17:21.511Z,11.99
2019-04-30T10:19:50.270Z,12.19
2019-04-30T10:22:19.068Z,12.19
2019-04-30T10:24:49.465Z,12.29
2019-04-30T10:27:19.240Z,12.37
2019-04-30T10:29:49.451Z,12.38
2019-04-30T10:32:18.780Z,12.41
2019-04-30T10:34:47.931Z,12.63
2019-04-30T10:37:18.762Z,12.68
2019-04-30T10:39:48.966Z,12.68
2019-04-30T10:42:18.237Z,12.64
2019-04-30T10:44:47.054Z,12.71
2019-04-30T10:47:15.934Z,12.95
2019-04-30T10:49:44.727Z,13.14
2019-04-30T10:52:13.894Z,12.64
2019-04-30T10:54:42.981Z,12.55
2019-04-30T10:57:11.804Z,12.93
2019-04-30T10:59:40.627Z,12.74
2019-04-30T11:02:09.464Z,12.83
2019-04-30T11:04:39.187Z,13.03
2019-04-30T11:07:08.604Z,13.04
2019-04-30T11:09:39.386Z,13.14
2019-04-30T11:12:09.507Z,13.33
2019-04-30T11:14:38.371Z,13.01
2019-04-30T11:17:09.637Z,13.11
2019-04-30T11:19:39.101Z,13.15
2019-04-30T11:22:08.197Z,13.16
2019-04-30T11:24:53.402Z,13.34
2019-04-30T11:27:09.970Z,13.21
2019-04-30T11:29:39.375Z,13.17
2019-04-30T11:32:13.866Z,13.30
2019-04-30T11:34:42.761Z,13.60
2019-04-30T11:37:11.787Z,13.59
2019-04-30T11:39:40.908Z,13.57
2019-04-30T11:42:10.041Z,13.53
2019-04-30T11:44:40.339Z,13.66
2019-04-30T11:47:19.435Z,13.85
2019-04-30T11:49:48.241Z,13.71
2019-04-30T11:52:17.069Z,13.81
2019-04-30T11:54:51.336Z,14.08
2019-04-30T11:57:18.580Z,14.34
2019-04-30T11:59:47.359Z,14.05
2019-04-30T12:02:24.376Z,14.34
2019-04-30T12:04:53.131Z,14.07
2019-04-30T12:07:28.228Z,14.42
2019-04-30T12:10:11.468Z,14.40
2019-04-30T12:12:40.248Z,14.63
2019-04-30T12:15:09.658Z,14.62
2019-04-30T12:17:38.390Z,14.53
2019-04-30T12:20:08.625Z,14.57
2019-04-30T12:22:39.639Z,14.55
2019-04-30T12:25:10.009Z,14.49
2019-04-30T12:27:38.961Z,14.95
2019-04-30T12:30:08.930Z,15.10
2019-04-30T12:32:39.288Z,15.24
2019-04-30T12:35:08.783Z,15.08
2019-04-30T12:37:39.110Z,14.75
2019-04-30T12:40:25.581Z,14.93
2019-04-30T12:42:40.479Z,14.84
2019-04-30T12:45:09.586Z,14.79
2019-04-30T12:47:42.657Z,15.08
2019-04-30T12:50:33.550Z,14.94
2019-04-30T12:53:06.177Z,14.83
2019-04-30T12:56:00.133Z,14.56
2019-04-30T12:58:27.276Z,14.72
2019-04-30T13:00:56.183Z,14.94
2019-04-30T13:03:25.063Z,15.05
2019-04-30T13:05:54.576Z,15.35
2019-04-30T13:08:24.303Z,15.27
2019-04-30T13:10:53.969Z,15.35
2019-04-30T13:13:24.006Z,15.34
2019-04-30T13:15:53.467Z,15.47
2019-04-30T13:18:22.383Z,15.45
2019-04-30T13:20:51.723Z,15.20
2019-04-30T13:23:20.472Z,15.13
2019-04-30T13:25:51.658Z,15.29
2019-04-30T13:28:22.076Z,15.50
2019-04-30T13:30:50.866Z,15.50
2019-04-30T13:33:28.994Z,15.63
2019-04-30T13:36:00.773Z,15.64
2019-04-30T13:38:45.126Z,15.84
2019-04-30T13:41:23.541Z,15.54
2019-04-30T13:44:00.627Z,15.64
2019-04-30T13:46:29.668Z,15.71
2019-04-30T13:48:58.495Z,15.48
2019-04-30T13:51:46.513Z,15.32
2019-04-30T13:54:15.334Z,15.38
2019-04-30T13:56:44.143Z,15.38
2019-04-30T13:59:13.051Z,15.65
2019-04-30T14:01:41.808Z,15.64
2019-04-30T14:04:35.588Z,15.46
2019-04-30T14:07:27.803Z,15.47
2019-04-30T14:09:56.723Z,15.83
2019-04-30T14:12:25.523Z,15.86
2019-04-30T14:14:54.277Z,15.98
2019-04-30T14:17:23.108Z,16.05
2019-04-30T14:19:51.957Z,15.89
2019-04-30T14:22:20.704Z,16.04
2019-04-30T14:25:11.350Z,15.91
2019-04-30T14:27:56.417Z,15.75
2019-04-30T14:30:32.001Z,15.78
2019-04-30T14:33:01.184Z,15.86
2019-04-30T14:35:56.428Z,15.73
2019-04-30T14:39:13.632Z,15.92
2019-04-30T14:41:43.245Z,15.98
2019-04-30T14:44:18.403Z,15.92
2019-04-30T14:47:17.068Z,15.98
2019-04-30T14:53:42.582Z,15.85
2019-04-30T14:56:35.293Z,15.78
2019-04-30T14:59:31.353Z,16.06
2019-04-30T15:03:05.001Z,15.99
2019-04-30T15:06:13.080Z,16.00
2019-04-30T15:08:41.818Z,16.09
2019-04-30T15:11:10.747Z,15.88
2019-04-30T15:13:39.571Z,15.84
2019-04-30T15:16:08.421Z,15.84
2019-04-30T15:18:38.893Z,15.64
2019-04-30T15:21:09.559Z,15.82
2019-04-30T15:24:09.715Z,15.80
2019-04-30T15:26:41.231Z,15.81
2019-04-30T15:29:12.373Z,15.77
2019-04-30T15:31:42.539Z,15.74
2019-04-30T15:34:12.152Z,15.88
2019-04-30T15:36:41.727Z,15.92
2019-04-30T15:39:20.536Z,15.85
2019-04-30T15:41:49.336Z,15.66
2019-04-30T15:44:18.233Z,15.72
2019-04-30T15:46:47.063Z,15.56
2019-04-30T15:49:16.158Z,15.36
2019-04-30T15:51:44.904Z,15.23
2019-04-30T15:54:13.950Z,15.43
2019-04-30T15:56:43.857Z,15.50
2019-04-30T15:59:40.522Z,15.46
2019-04-30T16:02:18.769Z,15.57
2019-04-30T16:05:03.294Z,15.64
2019-04-30T16:07:32.154Z,15.54
2019-04-30T16:10:08.989Z,15.68
2019-04-30T16:12:45.950Z,15.61
2019-04-30T16:15:14.860Z,15.66
2019-04-30T16:17:45.586Z,15.62
2019-04-30T16:20:14.725Z,15.56
2019-04-30T16:22:43.550Z,15.55
2019-04-30T16:25:13.744Z,15.50
2019-04-30T16:27:42.766Z,15.48
2019-04-30T16:30:11.760Z,15.56
2019-04-30T16:32:40.491Z,15.59
2019-04-30T16:35:09.376Z,15.53
2019-04-30T16:37:38.819Z,15.64
2019-04-30T16:40:08.587Z,15.62
2019-04-30T16:42:38.994Z,15.63
2019-04-30T16:45:10.055Z,15.51
2019-04-30T16:47:38.802Z,15.45
2019-04-30T16:50:09.033Z,15.50
2019-04-30T16:52:39.379Z,15.40
2019-04-30T16:55:08.328Z,15.35
2019-04-30T16:57:39.557Z,15.28
2019-04-30T17:00:10.017Z,15.43
2019-04-30T17:02:41.008Z,15.52
2019-04-30T17:05:16.983Z,15.35
2019-04-30T17:07:55.454Z,15.36
2019-04-30T17:10:43.259Z,15.31
2019-04-30T17:13:21.461Z,15.34
2019-04-30T17:15:52.085Z,15.31
2019-04-30T17:18:20.820Z,15.28
2019-04-30T17:20:49.754Z,15.25
2019-04-30T17:23:19.349Z,15.43
2019-04-30T17:25:48.227Z,15.35
2019-04-30T17:28:18.804Z,15.40
2019-04-30T17:30:49.128Z,15.32
2019-04-30T17:33:18.126Z,15.20
2019-04-30T17:35:46.868Z,15.25
2019-04-30T17:38:15.640Z,15.12
2019-04-30T17:40:44.392Z,14.98
2019-04-30T17:43:13.272Z,15.01
2019-04-30T17:45:42.158Z,14.83
2019-04-30T17:48:11.220Z,14.67
2019-04-30T17:50:40.065Z,14.62
2019-04-30T17:53:09.165Z,14.59
2019-04-30T17:55:39.127Z,14.69
2019-04-30T17:58:09.809Z,14.40
2019-04-30T18:00:40.858Z,14.24
2019-04-30T18:03:10.996Z,14.29
2019-04-30T18:05:41.317Z,14.14
2019-04-30T18:08:10.674Z,13.99
2019-04-30T18:10:40.104Z,14.06
2019-04-30T18:13:09.378Z,13.83
2019-04-30T18:15:38.780Z,13.68
2019-04-30T18:18:34.729Z,13.52
2019-04-30T18:21:23.513Z,13.60
2019-04-30T18:24:09.885Z,13.48
2019-04-30T18:26:44.955Z,13.44
2019-04-30T18:29:14.076Z,13.48
2019-04-30T18:31:42.851Z,13.41
2019-04-30T18:34:11.605Z,13.16
2019-04-30T18:36:40.458Z,13.19
2019-04-30T18:39:09.402Z,12.96
2019-04-30T18:41:38.457Z,12.92
2019-04-30T18:44:09.405Z,12.92
2019-04-30T18:46:39.043Z,12.75
2019-04-30T18:49:10.271Z,12.60
2019-04-30T18:51:42.407Z,12.58
2019-04-30T18:54:09.852Z,12.40
2019-04-30T18:56:38.995Z,12.42
2019-04-30T18:59:08.771Z,12.42
2019-04-30T19:01:37.836Z,12.26
2019-04-30T19:04:08.856Z,12.20
2019-04-30T19:06:37.444Z,12.15
2019-04-30T19:09:27.037Z,12.19
2019-04-30T19:12:12.196Z,12.16
2019-04-30T19:14:56.466Z,12.24
2019-04-30T19:17:39.332Z,12.24
2019-04-30T19:20:31.035Z,12.35
2019-04-30T19:23:00.244Z,12.31
2019-04-30T19:25:29.068Z,12.35
2019-04-30T19:28:09.566Z,12.25
2019-04-30T19:30:29.284Z,12.23
2019-04-30T19:32:58.989Z,12.24
2019-04-30T19:35:27.918Z,12.26
2019-04-30T19:37:56.754Z,12.28
2019-04-30T19:40:25.505Z,12.31
2019-04-30T19:42:54.252Z,12.28
2019-04-30T19:45:23.168Z,12.21
2019-04-30T19:47:52.022Z,12.32
2019-04-30T19:50:21.055Z,12.28
2019-04-30T19:52:50.179Z,12.33
2019-04-30T19:55:20.689Z,12.17
2019-04-30T19:57:51.042Z,12.18
2019-04-30T20:00:20.511Z,12.22
2019-04-30T20:02:49.349Z,12.27
2019-04-30T20:05:19.423Z,12.33
2019-04-30T20:07:49.321Z,12.22
2019-04-30T20:10:19.535Z,12.24
2019-04-30T20:12:49.780Z,12.18
2019-04-30T20:15:22.203Z,12.00
2019-04-30T20:17:49.976Z,12.04
2019-04-30T20:20:19.041Z,12.00
2019-04-30T20:22:47.773Z,12.08
2019-04-30T20:25:16.560Z,11.94
2019-04-30T20:27:45.321Z,12.01
2019-04-30T20:30:14.544Z,12.01
2019-04-30T20:32:43.307Z,11.90
2019-04-30T20:35:12.191Z,11.96
2019-04-30T20:37:59.426Z,11.90
2019-04-30T20:40:43.555Z,11.88
2019-04-30T20:43:10.562Z,11.83
2019-04-30T20:45:39.299Z,11.92
2019-04-30T20:48:08.966Z,11.81
2019-04-30T20:50:37.751Z,11.94
2019-04-30T20:53:08.728Z,11.69
2019-04-30T20:55:38.817Z,11.75
2019-04-30T20:58:09.459Z,11.62
2019-04-30T21:00:38.173Z,11.74
2019-04-30T21:03:06.897Z,11.74
2019-04-30T21:05:35.700Z,11.55
2019-04-30T21:08:04.505Z,11.63
2019-04-30T21:10:33.244Z,11.75
2019-04-30T21:13:02.314Z,11.76
2019-04-30T21:15:31.131Z,11.71
2019-04-30T21:18:00.359Z,11.60
2019-04-30T21:20:29.144Z,11.45
2019-04-30T21:22:59.648Z,11.56
2019-04-30T21:25:29.156Z,11.50
2019-04-30T21:27:59.955Z,11.54
2019-04-30T21:30:28.666Z,11.39
2019-04-30T21:33:10.335Z,11.48
2019-04-30T21:35:42.133Z,11.30
2019-04-30T21:38:10.926Z,11.46
2019-04-30T21:40:39.705Z,11.37
2019-04-30T21:43:08.544Z,11.32
2019-04-30T21:45:39.694Z,11.15
2019-04-30T21:48:09.168Z,11.36
2019-04-30T21:50:39.736Z,11.18
2019-04-30T21:53:09.888Z,10.92
2019-04-30T21:55:39.843Z,11.07
2019-04-30T21:58:09.559Z,11.05
2019-04-30T22:00:56.477Z,10.97
2019-04-30T22:03:25.269Z,11.06
2019-04-30T22:05:54.237Z,11.06
2019-04-30T22:08:22.985Z,11.04
2019-04-30T22:10:51.792Z,11.04
2019-04-30T22:13:20.519Z,11.04
2019-04-30T22:15:49.360Z,10.88
2019-04-30T22:18:18.054Z,10.53
2019-04-30T22:20:46.793Z,10.16
2019-04-30T22:23:15.668Z,10.05
2019-04-30T22:25:44.401Z,9.78
2019-04-30T22:28:13.164Z,9.76
2019-04-30T22:30:41.912Z,9.67
2019-04-30T22:33:10.939Z,9.78
2019-04-30T22:35:57.553Z,9.65
2019-04-30T22:38:29.570Z,9.64
2019-04-30T22:40:58.857Z,9.52
2019-04-30T22:43:27.891Z,9.27
2019-04-30T22:46:00.806Z,9.19
2019-04-30T22:48:29.576Z,9.09
2019-04-30T22:50:58.306Z,8.99
2019-04-30T22:53:27.086Z,9.13
2019-04-30T22:55:55.788Z,9.28
2019-04-30T22:58:24.703Z,9.17
2019-04-30T23:00:57.097Z,8.87
2019-04-30T23:03:34.678Z,8.82
2019-04-30T23:06:03.497Z,8.82
2019-04-30T23:08:32.222Z,8.99
2019-04-30T23:11:01.036Z,8.99
2019-04-30T23:13:29.774Z,9.06
2019-04-30T23:15:58.677Z,9.04
2019-04-30T23:18:27.507Z,9.16
2019-04-30T23:20:56.310Z,9.26
2019-04-30T23:23:25.049Z,9.24
2019-04-30T23:25:53.843Z,8.99
2019-04-30T23:28:22.572Z,9.00
2019-04-30T23:30:51.397Z,8.88
2019-04-30T23:33:20.148Z,8.94
2019-04-30T23:35:48.889Z,8.94
2019-04-30T23:38:17.625Z,8.73
2019-04-30T23:40:49.464Z,8.52
2019-04-30T23:43:18.970Z,8.52
2019-04-30T23:45:47.740Z,8.53
2019-04-30T23:48:16.748Z,8.59
2019-04-30T23:50:45.494Z,8.58
2019-04-30T23:53:14.323Z,8.46
2019-04-30T23:55:43.274Z,8.35
2019-04-30T23:58:12.014Z,8.53
